Time;durP1;ratioP1;P1;durP2;ratioP2;P2;SDS_P1;SDS_P2;PMS_P1;PMS_P2;Temp;Humidity;BMP_temperature;BMP_pressure;BME280_temperature;BME280_humidity;BME280_pressure;Samples;Min_cycle;Max_cycle;Signal;HPM_P1;HPM_P2
2022/08/06 00:00:01;;;;;;;7.78;4.15;;;;;;;10.62;83.87;102584.78;5113912;28;20255;-72
2022/08/06 00:02:29;;;;;;;6.82;3.50;;;;;;;10.62;83.92;102583.94;5113957;28;20451;-72
2022/08/06 00:05:00;;;;;;;7.10;3.40;;;;;;;10.54;83.61;102575.63;5113725;28;20134;-72
2022/08/06 00:07:25;;;;;;;7.80;3.40;;;;;;;10.57;83.93;102581.50;5113552;28;20023;-76
2022/08/06 00:09:51;;;;;;;7.13;3.40;;;;;;;10.52;84.03;102583.41;5113637;28;20364;-72
2022/08/06 00:12:16;;;;;;;8.98;4.03;;;;;;;10.49;83.75;102585.25;5113386;28;20019;-72
2022/08/06 00:14:42;;;;;;;5.60;3.10;;;;;;;10.50;84.26;102597.25;5113363;28;20031;-73
2022/08/06 00:17:07;;;;;;;7.88;3.20;;;;;;;10.50;84.35;102594.69;5113780;28;20028;-72
2022/08/06 00:19:33;;;;;;;6.30;3.22;;;;;;;10.49;84.46;102596.41;5113386;28;20084;-72
2022/08/06 00:21:58;;;;;;;7.50;2.95;;;;;;;10.36;84.48;102574.50;5113559;28;20375;-76
2022/08/06 00:24:24;;;;;;;8.38;3.35;;;;;;;10.41;84.55;102582.91;5112117;28;20110;-73
2022/08/06 00:26:49;;;;;;;8.68;3.08;;;;;;;10.32;84.51;102578.94;5113175;28;20019;-72
2022/08/06 00:29:14;;;;;;;9.38;3.40;;;;;;;10.47;84.76;102597.38;5113281;28;20024;-72
2022/08/06 00:31:40;;;;;;;9.00;3.33;;;;;;;10.45;85.47;102594.00;5113155;28;20118;-72
2022/08/06 00:34:05;;;;;;;7.20;3.72;;;;;;;10.38;85.27;102588.19;5112991;28;20051;-72
2022/08/06 00:36:31;;;;;;;8.13;3.70;;;;;;;10.48;85.39;102612.81;5113132;28;20390;-72
2022/08/06 00:38:59;;;;;;;7.20;4.18;;;;;;;10.41;85.03;102611.31;5112898;28;20024;-76
2022/08/06 00:41:24;;;;;;;7.55;3.92;;;;;;;10.27;84.78;102598.88;5113010;28;20098;-72
2022/08/06 00:43:50;;;;;;;7.45;3.47;;;;;;;10.26;85.01;102602.38;5113097;28;20092;-75
2022/08/06 00:46:15;;;;;;;13.90;3.95;;;;;;;10.29;84.96;102614.31;5112842;28;20028;-71
2022/08/06 00:48:40;;;;;;;7.20;3.65;;;;;;;10.26;85.16;102617.88;5113287;28;20368;-72
2022/08/06 00:51:06;;;;;;;9.98;3.67;;;;;;;10.21;85.38;102611.97;5113110;28;20027;-72
2022/08/06 00:53:31;;;;;;;8.52;3.65;;;;;;;10.21;85.75;102622.28;5112955;28;20023;-72
2022/08/06 00:55:56;;;;;;;7.18;3.58;;;;;;;10.22;86.02;102620.56;5112440;28;20020;-72
2022/08/06 00:58:22;;;;;;;8.27;3.65;;;;;;;10.18;85.81;102616.38;5112997;28;20020;-74
2022/08/06 01:00:47;;;;;;;7.90;3.70;;;;;;;10.11;85.74;102620.91;5112892;28;20133;-72
2022/08/06 01:03:16;;;;;;;7.25;3.70;;;;;;;9.86;86.01;102584.72;5113014;28;20058;-71
2022/08/06 01:05:43;;;;;;;8.65;3.60;;;;;;;10.07;85.82;102627.06;5112780;28;20471;-74
2022/08/06 01:08:08;;;;;;;6.85;3.55;;;;;;;9.99;85.93;102611.81;5112846;28;20031;-71
2022/08/06 01:10:33;;;;;;;8.45;3.80;;;;;;;10.09;86.26;102627.00;5112682;28;20024;-72
2022/08/06 01:12:59;;;;;;;8.93;3.60;;;;;;;10.05;86.17;102621.97;5112710;28;20027;-72
2022/08/06 01:15:24;;;;;;;10.05;3.80;;;;;;;10.11;86.52;102631.22;5112763;28;20439;-76
2022/08/06 01:18:12;;;;;;;8.63;3.92;;;;;;;10.14;86.39;102635.47;5112609;28;20106;-72
2022/08/06 01:20:55;;;;;;;8.40;3.90;;;;;;;10.13;86.91;102641.50;5111485;28;20067;-72
2022/08/06 01:24:01;;;;;;;6.90;3.42;;;;;;;10.11;86.74;102644.13;5111122;28;20028;-72
2022/08/06 01:26:33;;;;;;;10.55;3.78;;;;;;;10.10;87.37;102641.59;5112778;28;20530;-72
2022/08/06 01:29:02;;;;;;;7.00;3.80;;;;;;;10.01;87.52;102642.72;5112926;28;20054;-73
2022/08/06 01:31:59;;;;;;;9.32;3.72;;;;;;;9.96;87.01;102632.56;5112671;28;20024;-74
2022/08/06 01:34:38;;;;;;;9.23;3.70;;;;;;;10.02;87.86;102658.16;5049436;28;20103;-76
2022/08/06 01:37:16;;;;;;;9.00;3.65;;;;;;;9.93;87.99;102640.41;5049656;28;20025;-74
2022/08/06 01:39:44;;;;;;;9.85;3.97;;;;;;;9.92;88.10;102649.03;5049618;28;20037;-72
2022/08/06 01:42:12;;;;;;;7.53;3.90;;;;;;;9.91;87.98;102652.50;5049786;28;20033;-72
2022/08/06 01:44:40;;;;;;;8.50;3.85;;;;;;;9.95;88.33;102654.13;5049819;28;20502;-72
2022/08/06 01:47:09;;;;;;;7.30;3.50;;;;;;;9.92;88.14;102654.19;5049640;28;20032;-72
2022/08/06 01:49:37;;;;;;;6.95;3.45;;;;;;;9.91;88.33;102652.50;5049815;28;20040;-72
2022/08/06 01:52:05;;;;;;;8.15;3.95;;;;;;;9.77;88.16;102634.03;5049488;28;20120;-72
2022/08/06 01:54:34;;;;;;;8.10;4.03;;;;;;;9.86;88.60;102654.41;5049555;28;20041;-72
2022/08/06 01:57:01;;;;;;;7.75;3.20;;;;;;;9.70;88.35;102624.78;5032835;28;20543;-71
2022/08/06 01:59:32;;;;;;;7.28;3.50;;;;;;;9.81;88.49;102656.25;5049644;28;20120;-75
2022/08/06 02:02:00;;;;;;;6.50;3.00;;;;;;;9.80;88.44;102648.56;5049601;28;20025;-72
2022/08/06 02:04:36;;;;;;;9.43;3.70;;;;;;;9.76;88.94;102648.69;5032896;28;20486;-72
2022/08/06 02:07:05;;;;;;;9.32;4.10;;;;;;;9.78;88.60;102648.63;5049696;28;20037;-72
2022/08/06 02:09:33;;;;;;;11.02;3.85;;;;;;;9.72;88.87;102635.91;5052206;28;20029;-72
2022/08/06 02:12:09;;;;;;;8.63;3.88;;;;;;;9.71;88.79;102632.47;5103229;28;20478;-72
2022/08/06 02:14:40;;;;;;;10.18;4.28;;;;;;;9.66;88.99;102636.94;5115656;28;20085;-72
2022/08/06 02:17:07;;;;;;;9.43;4.10;;;;;;;9.73;88.88;102651.34;5115660;28;20444;-72
2022/08/06 02:19:33;;;;;;;11.20;4.32;;;;;;;9.62;89.67;102644.81;5115769;28;20027;-72
2022/08/06 02:22:01;;;;;;;8.32;3.83;;;;;;;9.68;89.50;102655.78;5115816;28;20051;-73
2022/08/06 02:24:29;;;;;;;8.70;4.20;;;;;;;9.67;90.00;102650.69;5115690;28;20032;-75
2022/08/06 02:26:58;;;;;;;8.73;4.40;;;;;;;9.66;89.98;102659.31;5115713;28;20058;-72
2022/08/06 02:29:25;;;;;;;7.22;3.88;;;;;;;9.66;89.97;102660.16;5115703;28;20501;-72
2022/08/06 02:31:51;;;;;;;7.25;3.70;;;;;;;9.46;89.83;102634.13;5115441;28;20479;-78
2022/08/06 02:34:19;;;;;;;12.02;3.88;;;;;;;9.48;89.78;102643.50;5113897;28;20079;-72
2022/08/06 02:37:12;;;;;;;7.18;3.58;;;;;;;9.52;89.42;102664.88;5115399;28;20436;-75
2022/08/06 02:39:45;;;;;;;9.20;3.85;;;;;;;9.33;89.79;102646.50;5115137;28;20031;-72
2022/08/06 02:42:11;;;;;;;5.50;3.40;;;;;;;9.40;90.04;102663.50;5115386;28;20036;-72
2022/08/06 02:44:55;;;;;;;9.07;3.42;;;;;;;9.38;90.15;102654.97;5115345;28;20146;-72
2022/08/06 02:47:29;;;;;;;7.85;4.13;;;;;;;9.34;89.74;102655.94;5115129;28;20035;-73
2022/08/06 02:49:59;;;;;;;8.55;3.63;;;;;;;9.19;89.92;102644.31;5115114;28;20024;-73
2022/08/06 02:52:48;;;;;;;11.23;4.13;;;;;;;9.29;89.64;102662.97;5114893;28;20071;-76
2022/08/06 02:55:19;;;;;;;5.85;3.35;;;;;;;9.23;89.92;102659.69;5115103;28;20028;-75
2022/08/06 02:57:49;;;;;;;;;;;;;;;9.26;88.70;102662.22;5115628;28;20111;-76
2022/08/06 03:00:15;;;;;;;5.85;3.22;;;;;;;9.14;89.75;102659.09;5114959;28;20309;-76
2022/08/06 03:02:43;;;;;;;7.32;3.47;;;;;;;9.15;89.96;102665.09;5115083;28;20039;-76
2022/08/06 03:05:18;;;;;;;6.60;3.38;;;;;;;8.99;89.72;102644.03;5115098;28;20023;-75
2022/08/06 03:07:45;;;;;;;5.88;3.53;;;;;;;9.01;90.22;102652.56;5114693;28;20483;-76
2022/08/06 03:10:13;;;;;;;7.35;3.40;;;;;;;9.07;89.96;102659.28;5112970;28;20040;-75
2022/08/06 03:12:40;;;;;;;7.53;3.80;;;;;;;9.01;90.20;102662.88;5114722;28;20023;-75
2022/08/06 03:15:07;;;;;;;7.63;3.70;;;;;;;8.99;90.09;102669.81;5113319;28;20027;-76
2022/08/06 03:17:33;;;;;;;9.63;3.88;;;;;;;8.98;90.71;102673.28;5114343;28;20103;-76
2022/08/06 03:20:01;;;;;;;7.45;3.90;;;;;;;8.94;90.57;102670.78;5114185;28;20424;-75
2022/08/06 03:22:28;;;;;;;7.15;4.03;;;;;;;8.91;90.64;102674.31;5114482;28;20375;-76
2022/08/06 03:24:55;;;;;;;6.80;4.30;;;;;;;8.84;91.28;102654.75;5114579;28;20144;-76
2022/08/06 03:27:21;;;;;;;8.15;4.05;;;;;;;8.92;90.95;102668.25;5114301;28;20031;-75
2022/08/06 03:29:48;;;;;;;6.55;3.95;;;;;;;8.93;90.89;102680.25;5114184;28;20024;-76
2022/08/06 03:32:13;;;;;;;7.65;3.97;;;;;;;8.78;90.89;102660.91;5114221;28;20422;-74
2022/08/06 03:34:40;;;;;;;8.38;4.32;;;;;;;8.87;91.01;102685.59;5114128;28;20051;-76
2022/08/06 03:37:07;;;;;;;7.22;3.90;;;;;;;8.81;91.01;102681.44;5114154;28;20027;-75
2022/08/06 03:39:34;;;;;;;10.23;4.20;;;;;;;8.84;91.53;102681.34;5114163;28;20248;-75
2022/08/06 03:41:59;;;;;;;8.82;3.78;;;;;;;8.74;91.07;102672.16;5113950;28;20019;-75
2022/08/06 03:44:25;;;;;;;6.38;3.90;;;;;;;8.83;91.20;102691.69;5113934;28;20032;-75
2022/08/06 03:47:16;;;;;;;6.82;3.85;;;;;;;8.78;91.13;102684.09;5113875;28;20493;-78
2022/08/06 03:49:48;;;;;;;6.53;3.95;;;;;;;8.52;91.08;102645.28;5114099;28;20103;-76
2022/08/06 03:52:18;;;;;;;6.60;3.97;;;;;;;8.73;91.04;102687.66;5113981;28;20093;-74
2022/08/06 03:54:48;;;;;;;5.33;3.87;;;;;;;8.74;91.02;102692.78;5113933;28;20428;-74
2022/08/06 03:57:17;;;;;;;11.07;4.18;;;;;;;8.69;91.19;102691.22;5113439;28;20483;-75
2022/08/06 03:59:44;;;;;;;8.10;4.10;;;;;;;8.66;91.26;102697.28;5113794;28;20080;-75
2022/08/06 04:02:12;;;;;;;10.15;3.97;;;;;;;8.59;91.29;102696.59;5113937;28;20077;-74
2022/08/06 04:04:39;;;;;;;7.07;3.60;;;;;;;8.66;90.90;102697.28;5112424;28;20039;-72
2022/08/06 04:07:05;;;;;;;6.63;3.72;;;;;;;8.66;91.29;102710.16;5113658;28;20028;-75
2022/08/06 04:09:32;;;;;;;7.57;3.70;;;;;;;8.65;91.12;102708.44;5113494;28;20474;-75
2022/08/06 04:11:59;;;;;;;8.10;4.05;;;;;;;8.65;91.49;102707.59;5113239;28;20023;-75
2022/08/06 04:14:24;;;;;;;6.65;3.53;;;;;;;8.63;91.32;102698.19;5113412;28;20501;-75
2022/08/06 04:16:51;;;;;;;7.53;4.00;;;;;;;8.67;90.76;102711.84;5113621;28;20105;-75
2022/08/06 04:19:18;;;;;;;11.40;3.70;;;;;;;8.69;90.88;102722.97;5113546;28;20020;-75
2022/08/06 04:21:45;;;;;;;8.23;4.18;;;;;;;8.71;91.09;102710.03;5113482;28;20085;-74
2022/08/06 04:24:11;;;;;;;6.38;3.58;;;;;;;8.67;91.37;102703.28;5113549;28;20394;-75
2022/08/06 04:26:38;;;;;;;6.95;3.75;;;;;;;8.66;91.18;102707.59;5113061;28;20016;-75
2022/08/06 04:29:06;;;;;;;5.70;3.58;;;;;;;8.77;91.19;102725.34;5113325;28;20114;-73
2022/08/06 04:31:32;;;;;;;8.48;4.28;;;;;;;8.81;91.44;102726.97;5112653;28;20409;-75
2022/08/06 04:34:00;;;;;;;7.25;4.03;;;;;;;8.72;91.48;102712.56;5113077;28;20043;-74
2022/08/06 04:36:26;;;;;;;10.30;5.03;;;;;;;8.86;91.79;102728.53;5113092;28;20022;-76
2022/08/06 04:38:51;;;;;;;7.50;4.53;;;;;;;8.80;92.07;102712.38;5112976;28;20023;-74
2022/08/06 04:41:17;;;;;;;9.85;4.70;;;;;;;8.99;92.06;102733.38;5111281;28;20074;-73
2022/08/06 04:43:43;;;;;;;11.10;5.03;;;;;;;9.01;92.22;102721.28;5113111;28;20031;-74
2022/08/06 04:46:09;;;;;;;7.93;4.88;;;;;;;9.08;92.20;102723.69;5113249;28;20035;-74
2022/08/06 04:48:35;;;;;;;10.50;4.68;;;;;;;9.10;92.34;102726.22;5113182;28;20027;-72
2022/08/06 04:51:05;;;;;;;10.93;4.25;;;;;;;9.16;92.40;102732.06;5111875;28;20030;-73
2022/08/06 04:53:41;;;;;;;6.70;3.90;;;;;;;9.08;92.34;102720.25;5112670;28;20027;-74
2022/08/06 04:56:07;;;;;;;8.20;4.25;;;;;;;9.17;92.56;102731.16;5113131;28;20030;-73
2022/08/06 04:58:33;;;;;;;7.90;4.18;;;;;;;9.25;92.20;102740.44;5113250;28;20055;-74
2022/08/06 05:01:00;;;;;;;7.82;3.85;;;;;;;9.30;92.43;102738.56;5113099;28;20031;-74
2022/08/06 05:03:25;;;;;;;6.68;3.72;;;;;;;9.34;92.18;102740.16;5112928;28;20028;-76
2022/08/06 05:06:17;;;;;;;7.45;3.60;;;;;;;9.43;92.30;102738.16;5112991;28;20019;-77
2022/08/06 05:08:46;;;;;;;7.20;3.70;;;;;;;9.52;92.52;102742.22;5112820;28;20032;-77
2022/08/06 05:11:26;;;;;;;6.47;3.92;;;;;;;9.65;91.79;102745.34;5113021;28;20035;-74
2022/08/06 05:13:58;;;;;;;9.35;4.40;;;;;;;9.90;91.55;102748.88;5112706;28;20023;-76
2022/08/06 05:16:25;;;;;;;7.47;3.90;;;;;;;10.20;90.74;102754.00;5112734;28;20020;-76
2022/08/06 05:18:57;;;;;;;7.93;4.28;;;;;;;10.49;89.14;102737.63;5112944;28;20107;-78
2022/08/06 05:21:27;;;;;;;6.18;3.67;;;;;;;10.97;87.60;102753.28;5111314;28;20463;-80
2022/08/06 05:23:53;;;;;;;7.22;3.78;;;;;;;11.44;85.59;102759.38;5112994;28;20027;-78
2022/08/06 05:26:20;;;;;;;6.43;3.13;;;;;;;12.24;85.05;102752.09;5112839;28;20470;-77
2022/08/06 05:28:46;;;;;;;6.60;3.25;;;;;;;12.93;81.89;102750.13;5112755;28;20035;-78
2022/08/06 05:31:11;;;;;;;5.30;3.33;;;;;;;13.77;79.17;102753.41;5113019;28;20020;-75
2022/08/06 05:33:38;;;;;;;8.68;3.53;;;;;;;14.35;76.34;102733.34;5112651;28;20044;-79
2022/08/06 05:36:11;;;;;;;7.25;3.03;;;;;;;15.35;74.23;102757.78;5112332;28;20023;-81
2022/08/06 05:38:39;;;;;;;5.40;2.88;;;;;;;16.05;70.12;102761.84;5112536;28;20031;-79
2022/08/06 05:41:09;;;;;;;6.53;3.25;;;;;;;16.45;68.82;102749.16;5112585;28;20381;-77
2022/08/06 05:43:36;;;;;;;7.32;3.28;;;;;;;17.39;64.79;102741.88;5115735;28;20034;-78
2022/08/06 05:46:08;;;;;;;5.82;2.75;;;;;;;18.48;61.18;102752.34;5116283;28;20023;-78
2022/08/06 05:48:38;;;;;;;5.30;2.33;;;;;;;19.27;59.75;102774.13;5116305;28;20027;-77
2022/08/06 05:51:20;;;;;;;7.75;2.90;;;;;;;19.81;58.56;102766.00;5116078;28;20024;-76
2022/08/06 05:53:54;;;;;;;5.30;2.30;;;;;;;20.54;56.69;102756.25;5116248;28;20027;-76
2022/08/06 05:56:29;;;;;;;5.68;2.50;;;;;;;21.01;55.09;102761.47;5116082;28;20028;-75
2022/08/06 05:59:01;;;;;;;7.57;2.75;;;;;;;21.65;51.90;102772.28;5116123;28;20036;-70
2022/08/06 06:01:26;;;;;;;5.80;2.33;;;;;;;21.51;51.43;102767.25;5115977;28;20023;-77
2022/08/06 06:03:54;;;;;;;7.30;2.60;;;;;;;21.10;51.11;102758.16;5115985;28;20050;-76
2022/08/06 06:06:21;;;;;;;7.63;2.85;;;;;;;20.70;52.48;102763.81;5116168;28;20436;-74
2022/08/06 06:08:46;;;;;;;7.57;2.60;;;;;;;20.53;52.90;102767.69;5116176;28;20095;-76
2022/08/06 06:11:13;;;;;;;7.05;2.65;;;;;;;20.86;53.28;102777.47;5116138;28;20073;-78
2022/08/06 06:13:41;;;;;;;9.25;2.75;;;;;;;21.00;51.79;102765.91;5115654;28;20026;-75
2022/08/06 06:16:31;;;;;;;5.35;2.67;;;;;;;20.88;54.03;102782.59;5115785;28;20020;-73
2022/08/06 06:19:14;;;;;;;4.63;2.67;;;;;;;20.74;54.81;102767.88;5115723;28;20020;-76
2022/08/06 06:21:46;;;;;;;6.88;2.67;;;;;;;21.44;52.21;102777.44;5115811;28;20027;-73
2022/08/06 06:24:32;;;;;;;4.75;2.50;;;;;;;22.30;51.65;102774.03;5115937;28;20088;-77
2022/08/06 06:27:07;;;;;;;7.13;2.60;;;;;;;22.71;49.40;102767.13;5115943;28;20394;-78
2022/08/06 06:29:57;;;;;;;11.65;2.85;;;;;;;23.19;47.31;102780.59;5115510;28;20026;-79
2022/08/06 06:32:38;;;;;;;5.63;2.40;;;;;;;23.57;48.39;102779.91;5114892;28;20035;-73
2022/08/06 06:35:21;;;;;;;;;;;;;;;23.87;50.53;102780.84;5115796;28;20035;-70
2022/08/06 06:37:56;;;;;;;5.72;2.00;;;;;;;23.47;46.23;102779.88;5115495;28;19912;-70
2022/08/06 06:40:42;;;;;;;5.97;2.35;;;;;;;23.73;47.52;102753.06;5115511;28;20034;-68
2022/08/06 06:43:39;;;;;;;6.82;2.40;;;;;;;23.91;47.65;102787.53;5115176;28;20035;-70
2022/08/06 06:46:22;;;;;;;6.63;2.15;;;;;;;24.31;45.68;102787.47;5115015;28;20047;-70
2022/08/06 06:49:03;;;;;;;7.00;1.85;;;;;;;23.93;45.24;102777.69;5115325;28;20031;-73
2022/08/06 06:51:55;;;;;;;8.27;2.30;;;;;;;23.79;47.34;102788.59;5115255;28;20023;-78
2022/08/06 06:54:31;;;;;;;7.03;2.22;;;;;;;24.16;45.09;102794.09;5114227;28;20027;-77
2022/08/06 06:56:57;;;;;;;4.70;1.50;;;;;;;25.07;41.55;102782.19;5115191;28;20023;-76
2022/08/06 06:59:36;;;;;;;5.18;1.77;;;;;;;25.73;42.87;102788.19;5114753;28;20019;-75
2022/08/06 07:02:04;;;;;;;7.93;1.83;;;;;;;26.08;40.58;102789.22;5114928;28;20023;-78
2022/08/06 07:04:31;;;;;;;4.35;1.45;;;;;;;25.86;39.80;102793.16;5115011;28;20020;-73
2022/08/06 07:06:59;;;;;;;6.63;1.60;;;;;;;26.27;37.91;102788.25;5115128;28;20019;-73
2022/08/06 07:09:27;;;;;;;7.18;1.73;;;;;;;25.83;38.86;102790.78;5114733;28;20023;-72
2022/08/06 07:11:56;;;;;;;5.80;1.35;;;;;;;25.55;39.73;102792.56;5114906;28;20027;-74
2022/08/06 07:14:23;;;;;;;4.93;1.67;;;;;;;25.44;38.95;102788.31;5114266;28;20027;-72
2022/08/06 07:16:53;;;;;;;4.60;1.25;;;;;;;24.80;40.88;102791.72;5114871;28;20379;-73
2022/08/06 07:19:19;;;;;;;5.50;1.40;;;;;;;24.98;41.15;102796.28;5114778;28;20208;-73
2022/08/06 07:21:46;;;;;;;6.80;1.75;;;;;;;25.00;41.55;102797.78;5115035;28;20026;-73
2022/08/06 07:24:13;;;;;;;4.63;1.10;;;;;;;25.17;38.67;102790.94;5114849;28;20039;-74
2022/08/06 07:26:42;;;;;;;3.95;1.17;;;;;;;25.55;39.46;102792.56;5114640;28;20481;-76
2022/08/06 07:29:10;;;;;;;4.90;1.40;;;;;;;25.53;38.79;102781.31;5114474;28;20023;-74
2022/08/06 07:31:36;;;;;;;5.20;1.20;;;;;;;24.43;40.39;102794.25;5114259;28;20098;-73
2022/08/06 07:34:02;;;;;;;3.60;1.20;;;;;;;23.18;44.89;102798.22;5114119;28;20051;-74
2022/08/06 07:36:32;;;;;;;5.50;1.40;;;;;;;22.17;47.15;102794.41;5114284;28;20059;-74
2022/08/06 07:39:08;;;;;;;4.38;1.45;;;;;;;21.32;48.84;102809.91;5114240;28;20451;-73
2022/08/06 07:41:34;;;;;;;5.20;1.23;;;;;;;20.61;49.90;102807.34;5114234;28;20047;-75
2022/08/06 07:44:01;;;;;;;6.22;1.00;;;;;;;19.94;50.31;102816.63;5114014;28;20019;-74
2022/08/06 07:46:34;;;;;;;4.13;0.80;;;;;;;19.68;51.44;102819.31;5114107;28;20019;-73
2022/08/06 07:49:03;;;;;;;4.07;0.82;;;;;;;19.19;51.68;102808.72;5114349;28;20459;-73
2022/08/06 07:51:33;;;;;;;4.00;0.70;;;;;;;19.07;54.03;102818.22;5114141;28;20027;-72
2022/08/06 07:54:00;;;;;;;6.18;1.30;;;;;;;18.97;54.12;102816.31;5114007;28;20031;-73
2022/08/06 07:56:26;;;;;;;5.28;0.88;;;;;;;18.74;55.60;102812.63;5113866;28;20459;-73
2022/08/06 07:58:53;;;;;;;7.80;1.40;;;;;;;18.62;54.87;102819.47;5114026;28;20024;-74
2022/08/06 08:01:19;;;;;;;2.78;0.90;;;;;;;18.44;55.82;102813.66;5113865;28;20023;-73
2022/08/06 08:06:31;;;;;;;4.45;0.85;;;;;;;18.15;55.83;102809.47;5113734;28;20062;-73
2022/08/06 08:09:06;;;;;;;3.30;1.17;;;;;;;18.12;55.52;102828.81;5113884;28;20027;-73
2022/08/06 08:11:32;;;;;;;4.10;1.00;;;;;;;18.07;53.89;102817.78;5113552;28;20023;-72
2022/08/06 08:13:59;;;;;;;3.72;1.05;;;;;;;18.12;54.87;102820.13;5113678;28;20073;-75
2022/08/06 08:16:27;;;;;;;5.63;1.10;;;;;;;18.27;55.50;102829.59;5113289;28;20024;-74
2022/08/06 08:18:53;;;;;;;3.72;1.10;;;;;;;18.29;56.53;102823.34;5113464;28;20464;-73
2022/08/06 08:21:19;;;;;;;4.38;1.40;;;;;;;18.55;56.58;102834.72;5113413;28;20031;-73
2022/08/06 08:23:47;;;;;;;3.70;0.93;;;;;;;18.68;54.15;102836.56;5113344;28;20019;-75
2022/08/06 08:26:13;;;;;;;5.30;1.05;;;;;;;18.56;51.90;102839.03;5113471;28;20111;-74
2022/08/06 08:28:38;;;;;;;3.70;1.25;;;;;;;18.69;52.34;102838.28;5113390;28;20084;-75
2022/08/06 08:31:05;;;;;;;4.40;1.10;;;;;;;18.84;51.45;102818.94;5113302;28;20039;-72
2022/08/06 08:33:33;;;;;;;2.65;0.80;;;;;;;19.07;52.96;102812.16;5112938;28;20075;-74
2022/08/06 08:35:59;;;;;;;3.80;1.13;;;;;;;19.45;52.66;102825.25;5113292;28;20103;-73
2022/08/06 08:38:24;;;;;;;1.83;0.70;;;;;;;19.32;51.53;102824.44;5111633;28;20070;-75
2022/08/06 08:40:53;;;;;;;4.32;1.02;;;;;;;19.28;53.05;102813.34;5113022;28;20028;-70
2022/08/06 08:43:23;;;;;;;3.33;1.13;;;;;;;19.26;52.87;102824.84;5111405;28;20051;-74
2022/08/06 08:45:50;;;;;;;4.60;1.10;;;;;;;19.09;51.04;102839.09;5102526;28;20035;-73
2022/08/06 08:48:20;;;;;;;3.63;1.00;;;;;;;18.90;50.51;102827.22;5104400;28;20237;-78
2022/08/06 08:50:47;;;;;;;4.35;1.00;;;;;;;19.10;52.71;102833.75;5104337;28;20046;-72
2022/08/06 08:53:18;;;;;;;6.47;1.08;;;;;;;19.04;52.96;102818.44;5112946;28;20028;-75
2022/08/06 08:55:43;;;;;;;4.90;1.20;;;;;;;18.77;53.38;102812.41;5112899;28;20023;-73
2022/08/06 08:58:11;;;;;;;6.53;1.10;;;;;;;18.88;51.86;102846.59;5113011;28;20018;-75
2022/08/06 09:00:37;;;;;;;3.42;0.75;;;;;;;18.73;53.10;102839.75;5113083;28;20043;-74
2022/08/06 09:03:03;;;;;;;4.00;1.00;;;;;;;18.73;53.08;102840.59;5112877;28;20024;-76
2022/08/06 09:05:30;;;;;;;3.50;0.90;;;;;;;18.85;55.92;102839.78;5112815;28;20027;-78
2022/08/06 09:07:56;;;;;;;5.00;1.10;;;;;;;19.11;53.70;102837.22;5112703;28;20460;-76
2022/08/06 09:10:22;;;;;;;3.83;0.80;;;;;;;19.27;50.14;102847.47;5106100;28;20066;-76
2022/08/06 09:12:47;;;;;;;2.85;0.77;;;;;;;19.43;49.88;102842.88;5092473;28;20101;-79
2022/08/06 09:15:15;;;;;;;3.00;0.82;;;;;;;19.47;49.94;102847.81;5092369;28;20418;-74
2022/08/06 09:17:40;;;;;;;2.05;0.80;;;;;;;19.45;49.25;102860.16;5094294;28;20588;-75
2022/08/06 09:20:06;;;;;;;5.07;0.65;;;;;;;19.48;51.33;102846.03;5096580;28;20032;-79
2022/08/06 09:22:32;;;;;;;9.73;0.82;;;;;;;19.52;48.86;102836.16;5096506;28;20024;-73
2022/08/06 09:24:57;;;;;;;2.35;0.70;;;;;;;19.54;47.42;102847.38;5096324;28;20031;-75
2022/08/06 09:27:23;;;;;;;2.83;0.65;;;;;;;19.49;47.94;102834.59;5096749;28;20038;-80
2022/08/06 09:29:51;;;;;;;2.75;0.80;;;;;;;19.10;47.92;102833.75;5096566;28;20028;-75
2022/08/06 09:32:39;;;;;;;5.45;0.90;;;;;;;19.26;49.73;102851.03;5096213;28;20509;-80
2022/08/06 09:35:23;;;;;;;3.50;0.60;;;;;;;19.39;48.70;102842.25;5094791;28;20048;-76
2022/08/06 09:37:50;;;;;;;4.43;0.98;;;;;;;19.45;47.33;102851.47;5096240;28;20028;-77
2022/08/06 09:40:18;;;;;;;3.35;0.63;;;;;;;19.51;47.71;102837.13;5096238;28;20028;-76
2022/08/06 09:42:48;;;;;;;3.40;0.80;;;;;;;19.58;46.90;102839.25;5096162;28;20099;-77
2022/08/06 09:45:15;;;;;;;3.42;0.85;;;;;;;19.73;48.61;102846.03;5096171;28;20123;-76
2022/08/06 09:47:41;;;;;;;2.88;0.95;;;;;;;19.61;47.85;102851.28;5095803;28;20502;-75
2022/08/06 09:50:08;;;;;;;1.88;0.88;;;;;;;19.46;48.48;102856.59;5095899;28;20030;-78
2022/08/06 09:52:34;;;;;;;2.85;0.70;;;;;;;19.30;47.25;102852.53;5095739;28;20028;-76
2022/08/06 09:54:59;;;;;;;3.90;0.82;;;;;;;19.40;49.34;102858.81;5095939;28;20039;-76
2022/08/06 09:57:27;;;;;;;4.28;0.80;;;;;;;19.55;47.01;102863.00;5095905;28;20027;-77
2022/08/06 09:59:53;;;;;;;2.10;0.70;;;;;;;19.74;44.49;102854.72;5094631;28;20075;-78
2022/08/06 10:02:20;;;;;;;3.03;0.88;;;;;;;19.60;45.67;102853.06;5095618;28;20471;-76
2022/08/06 10:04:47;;;;;;;5.57;0.90;;;;;;;19.63;45.77;102847.59;5095776;28;20413;-74
2022/08/06 10:07:13;;;;;;;3.25;1.17;;;;;;;19.94;46.17;102848.06;5095876;28;20032;-76
2022/08/06 10:09:53;;;;;;;3.47;0.98;;;;;;;20.01;46.90;102841.47;5103494;28;20038;-74
2022/08/06 10:12:21;;;;;;;3.92;1.02;;;;;;;19.99;46.28;102845.97;5116103;28;20027;-77
2022/08/06 10:14:46;;;;;;;4.93;1.05;;;;;;;20.02;46.05;102851.84;5115956;28;20023;-75
2022/08/06 10:17:16;;;;;;;4.18;0.90;;;;;;;19.78;45.32;102850.97;5110769;27;20078;-75
2022/08/06 10:20:04;;;;;;;3.13;0.70;;;;;;;19.50;45.40;102859.84;5095265;28;20016;-77
2022/08/06 10:22:29;;;;;;;4.10;0.98;;;;;;;19.36;45.75;102847.69;5095317;28;20032;-79
2022/08/06 10:24:56;;;;;;;2.28;0.75;;;;;;;19.32;48.23;102843.59;5095384;28;20029;-74
2022/08/06 10:27:25;;;;;;;2.67;0.60;;;;;;;19.13;46.17;102844.00;5095572;28;20028;-77
2022/08/06 10:29:56;;;;;;;4.93;0.85;;;;;;;19.17;47.71;102848.13;5094026;28;20032;-74
2022/08/06 10:32:45;;;;;;;3.70;0.63;;;;;;;19.30;46.80;102842.88;5094847;28;20016;-77
2022/08/06 10:35:11;;;;;;;2.53;0.88;;;;;;;19.55;47.54;102834.16;5095283;28;20036;-77
2022/08/06 10:37:42;;;;;;;2.53;0.63;;;;;;;19.74;47.17;102831.13;5095096;28;20047;-79
2022/08/06 10:40:11;;;;;;;3.08;0.80;;;;;;;19.94;44.48;102829.72;5095158;28;20024;-80
2022/08/06 10:42:38;;;;;;;3.53;0.80;;;;;;;19.98;44.17;102826.78;5094894;28;20027;-78
2022/08/06 10:45:05;;;;;;;5.13;0.63;;;;;;;20.07;45.52;102817.44;5094664;28;20023;-79
2022/08/06 10:47:33;;;;;;;2.13;1.00;;;;;;;20.10;44.09;102811.13;5094851;28;20043;-75
2022/08/06 10:49:59;;;;;;;2.78;0.70;;;;;;;20.20;46.69;102806.88;5094840;28;20073;-78
2022/08/06 10:52:25;;;;;;;2.00;1.20;;;;;;;20.26;44.12;102823.03;5094819;28;20024;-79
2022/08/06 10:54:50;;;;;;;2.92;0.95;;;;;;;20.25;43.52;102823.94;5094748;28;20036;-79
2022/08/06 10:57:16;;;;;;;1.50;0.70;;;;;;;20.12;43.65;102812.69;5094784;28;20024;-80
2022/08/06 10:59:43;;;;;;;3.35;0.68;;;;;;;20.27;44.47;102824.69;5094477;28;20372;-81
2022/08/06 11:02:38;;;;;;;3.17;0.90;;;;;;;20.44;43.99;102822.66;5094597;28;20024;-73
2022/08/06 11:05:12;;;;;;;3.92;1.00;;;;;;;20.76;44.71;102821.13;5094733;28;20028;-80
2022/08/06 11:07:54;;;;;;;2.00;0.70;;;;;;;20.94;44.87;102813.63;5094545;28;20027;-79
2022/08/06 11:10:47;;;;;;;3.53;0.80;;;;;;;20.96;43.49;102817.00;5094671;28;20107;-78
2022/08/06 11:13:35;;;;;;;3.58;0.70;;;;;;;20.83;43.39;102811.81;5094114;28;20052;-80
2022/08/06 11:16:00;;;;;;;1.73;0.50;;;;;;;20.55;43.54;102818.31;5094352;28;20028;-80
2022/08/06 11:18:26;;;;;;;2.38;0.50;;;;;;;20.33;42.93;102807.66;5093967;28;20409;-79
2022/08/06 11:20:52;;;;;;;2.53;0.68;;;;;;;20.43;42.42;102800.81;5094374;28;20081;-77
2022/08/06 11:23:17;;;;;;;3.95;0.68;;;;;;;20.56;42.07;102816.53;5094273;28;20383;-79
2022/08/06 11:25:44;;;;;;;4.45;0.82;;;;;;;20.67;42.97;102800.81;5094042;28;20031;-75
2022/08/06 11:28:12;;;;;;;3.22;0.80;;;;;;;20.71;39.34;102806.66;5094009;28;20089;-81
2022/08/06 11:30:38;;;;;;;4.80;0.90;;;;;;;20.63;40.84;102810.69;5093881;28;20050;-79
2022/08/06 11:33:04;;;;;;;4.03;0.80;;;;;;;20.49;39.19;102808.25;5093554;28;20131;-73
2022/08/06 11:35:32;;;;;;;1.92;0.60;;;;;;;20.58;42.42;102801.50;5126344;27;20074;-74
2022/08/06 11:37:58;;;;;;;1.42;0.65;;;;;;;20.62;39.74;102802.91;5094166;28;20556;-80
2022/08/06 11:40:24;;;;;;;1.88;0.73;;;;;;;20.76;42.31;102805.38;5093373;28;20055;-78